sensor_id;sensor_type;location;lat;lon;timestamp;P1;durP1;ratioP1;P2;durP2;ratioP2
63555;SDS011;49700;48.072;7.800;2023-02-28T08:01:46;4.68;;;4.38;;
63555;SDS011;49700;48.072;7.800;2023-02-28T08:04:11;4.07;;;3.50;;
63555;SDS011;49700;48.072;7.800;2023-02-28T08:06:37;5.77;;;3.97;;
63555;SDS011;49700;48.072;7.800;2023-02-28T08:09:02;6.03;;;4.00;;
63555;SDS011;49700;48.072;7.800;2023-02-28T08:11:28;3.93;;;2.50;;
63555;SDS011;49700;48.072;7.800;2023-02-28T08:13:54;4.13;;;3.53;;
63555;SDS011;49700;48.072;7.800;2023-02-28T08:16:19;5.43;;;4.60;;
63555;SDS011;49700;48.072;7.800;2023-02-28T08:18:47;6.20;;;4.22;;
63555;SDS011;49700;48.072;7.800;2023-02-28T08:21:16;4.20;;;3.80;;
63555;SDS011;49700;48.072;7.800;2023-02-28T08:23:41;4.17;;;3.37;;
63555;SDS011;49700;48.072;7.800;2023-02-28T08:26:07;5.70;;;4.00;;
63555;SDS011;49700;48.072;7.800;2023-02-28T08:28:32;3.63;;;3.33;;
63555;SDS011;49700;48.072;7.800;2023-02-28T08:30:58;5.00;;;3.57;;
63555;SDS011;49700;48.072;7.800;2023-02-28T08:33:24;7.35;;;5.35;;
63555;SDS011;49700;48.072;7.800;2023-02-28T08:35:53;4.80;;;4.30;;
63555;SDS011;49700;48.072;7.800;2023-02-28T08:38:19;5.50;;;4.55;;
63555;SDS011;49700;48.072;7.800;2023-02-28T08:40:45;5.33;;;4.47;;
63555;SDS011;49700;48.072;7.800;2023-02-28T08:43:10;5.07;;;4.00;;
63555;SDS011;49700;48.072;7.800;2023-02-28T08:45:36;5.67;;;4.27;;
63555;SDS011;49700;48.072;7.800;2023-02-28T08:48:01;7.77;;;5.63;;
63555;SDS011;49700;48.072;7.800;2023-02-28T08:50:27;6.97;;;4.27;;
63555;SDS011;49700;48.072;7.800;2023-02-28T08:52:52;5.23;;;4.73;;
63555;SDS011;49700;48.072;7.800;2023-02-28T08:55:17;6.33;;;5.20;;
63555;SDS011;49700;48.072;7.800;2023-02-28T08:57:43;6.90;;;4.80;;
63555;SDS011;49700;48.072;7.800;2023-02-28T09:00:08;6.00;;;4.90;;
63555;SDS011;49700;48.072;7.800;2023-02-28T09:02:35;5.35;;;4.80;;
63555;SDS011;49700;48.072;7.800;2023-02-28T09:05:00;6.20;;;5.30;;
63555;SDS011;49700;48.072;7.800;2023-02-28T09:07:26;8.63;;;5.10;;
63555;SDS011;49700;48.072;7.800;2023-02-28T09:09:51;6.90;;;5.27;;
63555;SDS011;49700;48.072;7.800;2023-02-28T09:12:22;6.05;;;4.43;;
63555;SDS011;49700;48.072;7.800;2023-02-28T09:14:48;5.05;;;4.55;;
63555;SDS011;49700;48.072;7.800;2023-02-28T09:17:14;6.90;;;6.20;;
63555;SDS011;49700;48.072;7.800;2023-02-28T09:19:40;10.68;;;6.90;;
63555;SDS011;49700;48.072;7.800;2023-02-28T09:22:05;7.47;;;5.70;;
63555;SDS011;49700;48.072;7.800;2023-02-28T09:24:31;7.97;;;5.33;;
63555;SDS011;49700;48.072;7.800;2023-02-28T09:26:56;6.97;;;4.43;;
63555;SDS011;49700;48.072;7.800;2023-02-28T09:29:22;8.13;;;4.83;;
63555;SDS011;49700;48.072;7.800;2023-02-28T09:31:47;5.50;;;5.00;;
63555;SDS011;49700;48.072;7.800;2023-02-28T09:34:13;7.40;;;5.50;;
63555;SDS011;49700;48.072;7.800;2023-02-28T09:36:38;5.40;;;4.90;;
63555;SDS011;49700;48.072;7.800;2023-02-28T09:39:03;8.23;;;5.00;;
63555;SDS011;49700;48.072;7.800;2023-02-28T09:41:31;9.63;;;8.23;;
63555;SDS011;49700;48.072;7.800;2023-02-28T09:44:35;8.40;;;6.25;;
63555;SDS011;49700;48.072;7.800;2023-02-28T09:49:40;7.15;;;5.88;;
63555;SDS011;49700;48.072;7.800;2023-02-28T09:52:12;6.85;;;5.47;;
63555;SDS011;49700;48.072;7.800;2023-02-28T09:54:41;6.55;;;4.97;;
63555;SDS011;49700;48.072;7.800;2023-02-28T09:59:39;7.35;;;5.45;;
63555;SDS011;49700;48.072;7.800;2023-02-28T10:05:17;6.68;;;5.90;;
63555;SDS011;49700;48.072;7.800;2023-02-28T10:10:50;7.47;;;5.57;;
63555;SDS011;49700;48.072;7.800;2023-02-28T10:13:23;7.20;;;4.63;;
63555;SDS011;49700;48.072;7.800;2023-02-28T10:18:39;9.68;;;6.82;;
63555;SDS011;49700;48.072;7.800;2023-02-28T10:24:33;11.00;;;8.25;;
63555;SDS011;49700;48.072;7.800;2023-02-28T10:29:39;11.10;;;6.40;;
63555;SDS011;49700;48.072;7.800;2023-02-28T10:32:15;8.82;;;5.32;;
63555;SDS011;49700;48.072;7.800;2023-02-28T10:34:51;13.80;;;7.82;;
63555;SDS011;49700;48.072;7.800;2023-02-28T10:37:20;10.00;;;7.68;;
63555;SDS011;49700;48.072;7.800;2023-02-28T10:39:46;7.30;;;5.43;;
63555;SDS011;49700;48.072;7.800;2023-02-28T10:42:22;6.40;;;5.37;;
63555;SDS011;49700;48.072;7.800;2023-02-28T10:45:06;13.07;;;8.63;;
63555;SDS011;49700;48.072;7.800;2023-02-28T10:50:27;6.57;;;5.53;;
63555;SDS011;49700;48.072;7.800;2023-02-28T10:55:35;7.30;;;6.35;;
63555;SDS011;49700;48.072;7.800;2023-02-28T10:58:01;11.45;;;7.53;;
63555;SDS011;49700;48.072;7.800;2023-02-28T11:00:31;10.32;;;5.35;;
63555;SDS011;49700;48.072;7.800;2023-02-28T11:03:01;10.63;;;6.82;;
63555;SDS011;49700;48.072;7.800;2023-02-28T11:05:28;5.57;;;5.00;;
63555;SDS011;49700;48.072;7.800;2023-02-28T11:10:59;8.45;;;5.75;;
63555;SDS011;49700;48.072;7.800;2023-02-28T11:13:32;9.18;;;6.05;;
63555;SDS011;49700;48.072;7.800;2023-02-28T11:16:00;9.40;;;6.15;;
63555;SDS011;49700;48.072;7.800;2023-02-28T11:18:49;10.25;;;6.15;;
63555;SDS011;49700;48.072;7.800;2023-02-28T11:21:21;5.88;;;5.28;;
63555;SDS011;49700;48.072;7.800;2023-02-28T11:23:51;8.70;;;5.90;;
63555;SDS011;49700;48.072;7.800;2023-02-28T11:29:28;7.65;;;5.50;;
63555;SDS011;49700;48.072;7.800;2023-02-28T11:34:29;7.18;;;5.60;;
63555;SDS011;49700;48.072;7.800;2023-02-28T11:36:56;9.77;;;6.70;;
63555;SDS011;49700;48.072;7.800;2023-02-28T11:39:24;9.00;;;6.57;;
63555;SDS011;49700;48.072;7.800;2023-02-28T11:50:11;10.70;;;5.97;;
63555;SDS011;49700;48.072;7.800;2023-02-28T11:52:56;9.63;;;7.65;;
63555;SDS011;49700;48.072;7.800;2023-02-28T11:57:58;7.13;;;5.13;;
63555;SDS011;49700;48.072;7.800;2023-02-28T12:00:56;10.02;;;5.55;;
63555;SDS011;49700;48.072;7.800;2023-02-28T12:11:28;7.28;;;5.53;;
63555;SDS011;49700;48.072;7.800;2023-02-28T12:16:59;8.80;;;5.70;;
63555;SDS011;49700;48.072;7.800;2023-02-28T12:22:30;9.63;;;6.95;;
63555;SDS011;49700;48.072;7.800;2023-02-28T12:27:33;7.82;;;6.07;;
63555;SDS011;49700;48.072;7.800;2023-02-28T12:30:03;8.57;;;6.60;;
63555;SDS011;49700;48.072;7.800;2023-02-28T12:32:42;9.55;;;5.70;;
63555;SDS011;49700;48.072;7.800;2023-02-28T12:35:13;9.43;;;8.43;;
63555;SDS011;49700;48.072;7.800;2023-02-28T12:37:45;6.55;;;5.63;;
63555;SDS011;49700;48.072;7.800;2023-02-28T12:42:49;7.88;;;5.57;;
63555;SDS011;49700;48.072;7.800;2023-02-28T12:45:24;7.28;;;6.25;;
63555;SDS011;49700;48.072;7.800;2023-02-28T12:47:55;6.72;;;5.25;;
63555;SDS011;49700;48.072;7.800;2023-02-28T12:50:25;7.75;;;5.90;;
63555;SDS011;49700;48.072;7.800;2023-02-28T12:52:54;9.80;;;6.32;;
63555;SDS011;49700;48.072;7.800;2023-02-28T12:55:31;6.82;;;6.13;;
63555;SDS011;49700;48.072;7.800;2023-02-28T13:09:29;9.27;;;6.10;;
63555;SDS011;49700;48.072;7.800;2023-02-28T13:11:55;8.00;;;7.20;;
63555;SDS011;49700;48.072;7.800;2023-02-28T13:14:23;8.77;;;7.13;;
63555;SDS011;49700;48.072;7.800;2023-02-28T13:19:57;7.40;;;4.45;;
63555;SDS011;49700;48.072;7.800;2023-02-28T13:25:49;9.15;;;7.20;;
63555;SDS011;49700;48.072;7.800;2023-02-28T13:27:58;8.02;;;6.25;;
63555;SDS011;49700;48.072;7.800;2023-02-28T13:36:22;8.60;;;7.80;;
63555;SDS011;49700;48.072;7.800;2023-02-28T13:38:59;9.55;;;6.60;;
63555;SDS011;49700;48.072;7.800;2023-02-28T13:46:26;6.88;;;6.28;;
63555;SDS011;49700;48.072;7.800;2023-02-28T13:48:54;10.27;;;8.48;;
63555;SDS011;49700;48.072;7.800;2023-02-28T13:51:36;7.10;;;6.17;;
63555;SDS011;49700;48.072;7.800;2023-02-28T13:54:17;9.07;;;7.05;;
63555;SDS011;49700;48.072;7.800;2023-02-28T14:05:19;8.60;;;6.32;;
63555;SDS011;49700;48.072;7.800;2023-02-28T14:07:55;8.40;;;6.38;;
63555;SDS011;49700;48.072;7.800;2023-02-28T14:10:27;8.70;;;6.75;;
63555;SDS011;49700;48.072;7.800;2023-02-28T14:13:00;7.10;;;6.22;;
63555;SDS011;49700;48.072;7.800;2023-02-28T14:18:22;10.80;;;7.53;;
63555;SDS011;49700;48.072;7.800;2023-02-28T14:21:37;6.68;;;5.80;;
63555;SDS011;49700;48.072;7.800;2023-02-28T14:29:43;9.95;;;6.30;;
63555;SDS011;49700;48.072;7.800;2023-02-28T14:38:00;8.70;;;7.00;;
63555;SDS011;49700;48.072;7.800;2023-02-28T14:40:33;7.68;;;5.60;;
63555;SDS011;49700;48.072;7.800;2023-02-28T14:43:01;11.20;;;7.28;;
63555;SDS011;49700;48.072;7.800;2023-02-28T14:45:30;8.88;;;6.30;;
63555;SDS011;49700;48.072;7.800;2023-02-28T14:47:57;7.43;;;5.85;;
63555;SDS011;49700;48.072;7.800;2023-02-28T14:50:33;9.60;;;6.80;;
63555;SDS011;49700;48.072;7.800;2023-02-28T14:53:00;7.45;;;5.32;;
63555;SDS011;49700;48.072;7.800;2023-02-28T14:55:31;7.20;;;5.50;;
63555;SDS011;49700;48.072;7.800;2023-02-28T14:58:04;7.40;;;6.70;;
63555;SDS011;49700;48.072;7.800;2023-02-28T15:00:32;7.93;;;6.97;;
63555;SDS011;49700;48.072;7.800;2023-02-28T15:03:00;10.73;;;7.88;;
63555;SDS011;49700;48.072;7.800;2023-02-28T15:05:42;10.18;;;8.13;;
63555;SDS011;49700;48.072;7.800;2023-02-28T15:08:17;11.38;;;8.43;;
63555;SDS011;49700;48.072;7.800;2023-02-28T15:10:50;10.43;;;6.97;;
63555;SDS011;49700;48.072;7.800;2023-02-28T15:13:18;10.15;;;7.50;;
63555;SDS011;49700;48.072;7.800;2023-02-28T15:15:57;9.60;;;6.80;;
63555;SDS011;49700;48.072;7.800;2023-02-28T15:21:11;8.98;;;6.13;;
63555;SDS011;49700;48.072;7.800;2023-02-28T15:23:40;10.82;;;7.40;;
63555;SDS011;49700;48.072;7.800;2023-02-28T15:26:14;10.32;;;7.43;;
63555;SDS011;49700;48.072;7.800;2023-02-28T15:28:42;9.52;;;7.43;;
63555;SDS011;49700;48.072;7.800;2023-02-28T15:31:23;13.50;;;9.25;;
63555;SDS011;49700;48.072;7.800;2023-02-28T15:33:54;9.15;;;7.22;;
63555;SDS011;49700;48.072;7.800;2023-02-28T15:36:21;13.70;;;8.95;;
63555;SDS011;49700;48.072;7.800;2023-02-28T15:38:51;11.63;;;8.93;;
63555;SDS011;49700;48.072;7.800;2023-02-28T15:41:24;11.35;;;7.90;;
63555;SDS011;49700;48.072;7.800;2023-02-28T15:46:45;9.55;;;7.70;;
63555;SDS011;49700;48.072;7.800;2023-02-28T15:49:29;10.45;;;7.57;;
63555;SDS011;49700;48.072;7.800;2023-02-28T15:52:26;13.32;;;9.15;;
63555;SDS011;49700;48.072;7.800;2023-02-28T15:54:56;9.43;;;6.97;;
63555;SDS011;49700;48.072;7.800;2023-02-28T15:57:27;12.38;;;8.88;;
63555;SDS011;49700;48.072;7.800;2023-02-28T15:59:56;13.68;;;7.80;;
63555;SDS011;49700;48.072;7.800;2023-02-28T16:02:35;10.88;;;8.23;;
63555;SDS011;49700;48.072;7.800;2023-02-28T16:07:36;11.18;;;8.40;;
63555;SDS011;49700;48.072;7.800;2023-02-28T16:10:04;9.15;;;7.45;;
63555;SDS011;49700;48.072;7.800;2023-02-28T16:12:32;8.00;;;7.15;;
63555;SDS011;49700;48.072;7.800;2023-02-28T16:15:00;11.45;;;8.60;;
63555;SDS011;49700;48.072;7.800;2023-02-28T16:17:33;14.48;;;7.50;;
63555;SDS011;49700;48.072;7.800;2023-02-28T16:20:05;8.60;;;6.05;;
63555;SDS011;49700;48.072;7.800;2023-02-28T16:22:37;9.40;;;7.30;;
63555;SDS011;49700;48.072;7.800;2023-02-28T16:25:03;7.30;;;6.60;;
63555;SDS011;49700;48.072;7.800;2023-02-28T16:27:30;9.10;;;6.85;;
63555;SDS011;49700;48.072;7.800;2023-02-28T16:29:58;8.43;;;6.90;;
63555;SDS011;49700;48.072;7.800;2023-02-28T16:32:23;8.63;;;7.10;;
63555;SDS011;49700;48.072;7.800;2023-02-28T16:34:49;8.60;;;7.70;;
63555;SDS011;49700;48.072;7.800;2023-02-28T16:37:15;9.37;;;8.37;;
63555;SDS011;49700;48.072;7.800;2023-02-28T16:39:42;10.90;;;7.22;;
63555;SDS011;49700;48.072;7.800;2023-02-28T16:42:16;10.23;;;7.00;;
63555;SDS011;49700;48.072;7.800;2023-02-28T16:44:48;11.30;;;8.27;;
63555;SDS011;49700;48.072;7.800;2023-02-28T16:47:14;8.90;;;7.30;;
63555;SDS011;49700;48.072;7.800;2023-02-28T16:49:40;8.13;;;6.90;;
63555;SDS011;49700;48.072;7.800;2023-02-28T16:52:07;11.77;;;7.45;;
63555;SDS011;49700;48.072;7.800;2023-02-28T16:54:38;9.70;;;7.53;;
63555;SDS011;49700;48.072;7.800;2023-02-28T16:57:05;12.32;;;8.60;;
63555;SDS011;49700;48.072;7.800;2023-02-28T16:59:33;9.15;;;7.60;;
63555;SDS011;49700;48.072;7.800;2023-02-28T17:01:59;8.30;;;6.17;;
63555;SDS011;49700;48.072;7.800;2023-02-28T17:04:25;10.17;;;6.43;;
63555;SDS011;49700;48.072;7.800;2023-02-28T17:06:54;9.95;;;6.93;;
63555;SDS011;49700;48.072;7.800;2023-02-28T17:09:20;9.63;;;7.70;;
63555;SDS011;49700;48.072;7.800;2023-02-28T17:11:48;11.63;;;7.55;;
63555;SDS011;49700;48.072;7.800;2023-02-28T17:14:15;9.18;;;6.43;;
63555;SDS011;49700;48.072;7.800;2023-02-28T17:16:41;10.25;;;6.78;;
63555;SDS011;49700;48.072;7.800;2023-02-28T17:19:11;11.00;;;7.95;;
63555;SDS011;49700;48.072;7.800;2023-02-28T17:21:39;8.60;;;7.30;;
63555;SDS011;49700;48.072;7.800;2023-02-28T17:24:06;13.75;;;8.95;;
63555;SDS011;49700;48.072;7.800;2023-02-28T17:26:32;10.73;;;7.55;;
63555;SDS011;49700;48.072;7.800;2023-02-28T17:28:58;9.63;;;6.67;;
63555;SDS011;49700;48.072;7.800;2023-02-28T17:31:24;15.63;;;7.27;;
63555;SDS011;49700;48.072;7.800;2023-02-28T17:33:50;9.90;;;8.10;;
63555;SDS011;49700;48.072;7.800;2023-02-28T17:36:18;10.30;;;7.70;;
63555;SDS011;49700;48.072;7.800;2023-02-28T17:38:47;9.73;;;7.15;;
63555;SDS011;49700;48.072;7.800;2023-02-28T17:41:13;12.20;;;7.85;;
63555;SDS011;49700;48.072;7.800;2023-02-28T17:43:38;9.90;;;8.43;;
63555;SDS011;49700;48.072;7.800;2023-02-28T17:46:04;10.53;;;8.47;;
63555;SDS011;49700;48.072;7.800;2023-02-28T17:48:30;11.55;;;8.45;;
63555;SDS011;49700;48.072;7.800;2023-02-28T17:50:57;9.57;;;7.80;;
63555;SDS011;49700;48.072;7.800;2023-02-28T17:53:23;11.20;;;9.60;;
63555;SDS011;49700;48.072;7.800;2023-02-28T17:55:51;11.73;;;9.27;;
63555;SDS011;49700;48.072;7.800;2023-02-28T17:58:17;12.63;;;8.30;;
63555;SDS011;49700;48.072;7.800;2023-02-28T18:00:43;13.93;;;8.70;;
63555;SDS011;49700;48.072;7.800;2023-02-28T18:03:09;12.07;;;7.67;;
63555;SDS011;49700;48.072;7.800;2023-02-28T18:05:35;13.68;;;9.13;;
63555;SDS011;49700;48.072;7.800;2023-02-28T18:08:01;11.60;;;7.87;;
63555;SDS011;49700;48.072;7.800;2023-02-28T18:10:27;10.70;;;8.20;;
63555;SDS011;49700;48.072;7.800;2023-02-28T18:12:52;15.30;;;9.63;;
63555;SDS011;49700;48.072;7.800;2023-02-28T18:15:19;8.80;;;7.90;;
63555;SDS011;49700;48.072;7.800;2023-02-28T18:17:47;13.27;;;9.25;;
63555;SDS011;49700;48.072;7.800;2023-02-28T18:20:14;13.07;;;8.77;;
63555;SDS011;49700;48.072;7.800;2023-02-28T18:22:40;12.95;;;7.97;;
63555;SDS011;49700;48.072;7.800;2023-02-28T18:25:07;12.85;;;8.27;;
63555;SDS011;49700;48.072;7.800;2023-02-28T18:27:38;10.13;;;9.13;;
63555;SDS011;49700;48.072;7.800;2023-02-28T18:30:04;14.17;;;9.83;;
63555;SDS011;49700;48.072;7.800;2023-02-28T18:32:30;11.27;;;8.13;;
63555;SDS011;49700;48.072;7.800;2023-02-28T18:34:56;11.90;;;9.23;;
63555;SDS011;49700;48.072;7.800;2023-02-28T18:37:21;17.40;;;10.30;;
63555;SDS011;49700;48.072;7.800;2023-02-28T18:39:47;10.57;;;9.43;;
63555;SDS011;49700;48.072;7.800;2023-02-28T18:42:13;19.47;;;9.10;;
63555;SDS011;49700;48.072;7.800;2023-02-28T18:44:39;14.48;;;9.63;;
63555;SDS011;49700;48.072;7.800;2023-02-28T18:47:04;16.93;;;9.53;;
63555;SDS011;49700;48.072;7.800;2023-02-28T18:49:33;12.02;;;10.82;;
63555;SDS011;49700;48.072;7.800;2023-02-28T18:52:00;13.85;;;11.18;;
63555;SDS011;49700;48.072;7.800;2023-02-28T18:54:26;15.80;;;10.55;;
63555;SDS011;49700;48.072;7.800;2023-02-28T18:56:51;16.33;;;9.37;;
63555;SDS011;49700;48.072;7.800;2023-02-28T18:59:18;15.40;;;10.80;;
63555;SDS011;49700;48.072;7.800;2023-02-28T19:01:43;19.27;;;13.27;;
63555;SDS011;49700;48.072;7.800;2023-02-28T19:04:13;14.35;;;10.80;;
63555;SDS011;49700;48.072;7.800;2023-02-28T19:06:39;18.70;;;10.68;;
63555;SDS011;49700;48.072;7.800;2023-02-28T19:09:06;20.65;;;12.20;;
63555;SDS011;49700;48.072;7.800;2023-02-28T19:11:32;17.80;;;12.23;;
63555;SDS011;49700;48.072;7.800;2023-02-28T19:13:59;13.80;;;10.00;;
63555;SDS011;49700;48.072;7.800;2023-02-28T19:16:24;17.60;;;12.97;;
63555;SDS011;49700;48.072;7.800;2023-02-28T19:18:51;16.45;;;11.82;;
63555;SDS011;49700;48.072;7.800;2023-02-28T19:21:19;16.05;;;11.07;;
63555;SDS011;49700;48.072;7.800;2023-02-28T19:23:46;16.60;;;11.07;;
63555;SDS011;49700;48.072;7.800;2023-02-28T19:26:16;18.60;;;11.95;;
63555;SDS011;49700;48.072;7.800;2023-02-28T19:28:43;17.52;;;12.43;;
63555;SDS011;49700;48.072;7.800;2023-02-28T19:31:10;18.60;;;12.57;;
63555;SDS011;49700;48.072;7.800;2023-02-28T19:33:37;20.77;;;15.65;;
63555;SDS011;49700;48.072;7.800;2023-02-28T19:36:03;16.13;;;13.10;;
63555;SDS011;49700;48.072;7.800;2023-02-28T19:38:29;21.73;;;12.80;;
63555;SDS011;49700;48.072;7.800;2023-02-28T19:41:00;24.00;;;12.17;;
63555;SDS011;49700;48.072;7.800;2023-02-28T19:43:30;19.02;;;12.10;;
63555;SDS011;49700;48.072;7.800;2023-02-28T19:45:55;21.05;;;14.70;;
63555;SDS011;49700;48.072;7.800;2023-02-28T19:48:21;19.97;;;13.00;;
63555;SDS011;49700;48.072;7.800;2023-02-28T19:51:01;27.10;;;12.93;;
63555;SDS011;49700;48.072;7.800;2023-02-28T19:53:29;15.77;;;11.77;;
63555;SDS011;49700;48.072;7.800;2023-02-28T19:55:55;15.00;;;11.23;;
63555;SDS011;49700;48.072;7.800;2023-02-28T19:58:21;22.70;;;13.80;;
63555;SDS011;49700;48.072;7.800;2023-02-28T20:00:47;20.63;;;16.08;;
63555;SDS011;49700;48.072;7.800;2023-02-28T20:03:15;18.48;;;12.32;;
63555;SDS011;49700;48.072;7.800;2023-02-28T20:05:43;20.67;;;12.70;;
63555;SDS011;49700;48.072;7.800;2023-02-28T20:08:08;17.35;;;11.77;;
63555;SDS011;49700;48.072;7.800;2023-02-28T20:10:34;15.43;;;10.47;;
63555;SDS011;49700;48.072;7.800;2023-02-28T20:13:00;15.90;;;11.67;;
63555;SDS011;49700;48.072;7.800;2023-02-28T20:15:26;18.00;;;11.63;;
63555;SDS011;49700;48.072;7.800;2023-02-28T20:17:52;18.35;;;10.60;;
63555;SDS011;49700;48.072;7.800;2023-02-28T20:20:17;18.50;;;12.43;;
63555;SDS011;49700;48.072;7.800;2023-02-28T20:22:43;15.68;;;12.45;;
63555;SDS011;49700;48.072;7.800;2023-02-28T20:25:09;18.00;;;12.37;;
63555;SDS011;49700;48.072;7.800;2023-02-28T20:27:35;21.67;;;12.67;;
63555;SDS011;49700;48.072;7.800;2023-02-28T20:30:02;26.70;;;13.93;;
63555;SDS011;49700;48.072;7.800;2023-02-28T20:32:28;18.40;;;12.52;;
63555;SDS011;49700;48.072;7.800;2023-02-28T20:34:53;16.10;;;11.77;;
63555;SDS011;49700;48.072;7.800;2023-02-28T20:37:19;18.67;;;11.60;;
63555;SDS011;49700;48.072;7.800;2023-02-28T20:39:45;15.75;;;10.50;;
63555;SDS011;49700;48.072;7.800;2023-02-28T20:42:10;19.97;;;12.10;;
63555;SDS011;49700;48.072;7.800;2023-02-28T20:44:36;18.03;;;12.77;;
63555;SDS011;49700;48.072;7.800;2023-02-28T20:47:01;22.33;;;12.33;;
63555;SDS011;49700;48.072;7.800;2023-02-28T20:49:27;16.23;;;12.18;;
63555;SDS011;49700;48.072;7.800;2023-02-28T20:51:53;17.47;;;11.77;;
63555;SDS011;49700;48.072;7.800;2023-02-28T20:54:18;17.80;;;12.70;;
63555;SDS011;49700;48.072;7.800;2023-02-28T20:56:44;17.80;;;12.67;;
63555;SDS011;49700;48.072;7.800;2023-02-28T20:59:09;23.73;;;13.77;;
63555;SDS011;49700;48.072;7.800;2023-02-28T21:01:36;19.88;;;14.25;;
63555;SDS011;49700;48.072;7.800;2023-02-28T21:04:03;15.53;;;12.50;;
63555;SDS011;49700;48.072;7.800;2023-02-28T21:06:30;17.55;;;13.82;;
63555;SDS011;49700;48.072;7.800;2023-02-28T21:08:57;23.25;;;16.63;;
63555;SDS011;49700;48.072;7.800;2023-02-28T21:13:53;27.17;;;15.93;;
63555;SDS011;49700;48.072;7.800;2023-02-28T21:16:21;24.77;;;15.00;;
63555;SDS011;49700;48.072;7.800;2023-02-28T21:18:48;26.67;;;16.92;;
63555;SDS011;49700;48.072;7.800;2023-02-28T21:21:23;16.50;;;14.20;;
63555;SDS011;49700;48.072;7.800;2023-02-28T21:23:49;25.98;;;14.90;;
63555;SDS011;49700;48.072;7.800;2023-02-28T21:26:17;23.23;;;14.60;;
63555;SDS011;49700;48.072;7.800;2023-02-28T21:31:16;28.20;;;18.55;;
63555;SDS011;49700;48.072;7.800;2023-02-28T21:33:43;29.60;;;17.67;;
63555;SDS011;49700;48.072;7.800;2023-02-28T21:36:13;26.52;;;16.65;;
63555;SDS011;49700;48.072;7.800;2023-02-28T21:38:41;25.63;;;16.15;;
63555;SDS011;49700;48.072;7.800;2023-02-28T21:41:11;29.45;;;18.83;;
63555;SDS011;49700;48.072;7.800;2023-02-28T21:43:44;32.33;;;18.40;;
63555;SDS011;49700;48.072;7.800;2023-02-28T21:46:12;22.63;;;14.68;;
63555;SDS011;49700;48.072;7.800;2023-02-28T21:48:39;17.42;;;12.85;;
63555;SDS011;49700;48.072;7.800;2023-02-28T21:51:07;24.40;;;16.38;;
63555;SDS011;49700;48.072;7.800;2023-02-28T21:53:36;22.15;;;13.52;;
63555;SDS011;49700;48.072;7.800;2023-02-28T21:56:03;19.92;;;13.27;;
63555;SDS011;49700;48.072;7.800;2023-02-28T21:58:36;22.65;;;13.75;;
63555;SDS011;49700;48.072;7.800;2023-02-28T22:01:03;19.00;;;12.70;;
63555;SDS011;49700;48.072;7.800;2023-02-28T22:03:32;24.55;;;11.30;;
63555;SDS011;49700;48.072;7.800;2023-02-28T22:05:58;13.93;;;10.73;;
63555;SDS011;49700;48.072;7.800;2023-02-28T22:08:23;14.40;;;10.63;;
63555;SDS011;49700;48.072;7.800;2023-02-28T22:10:49;16.50;;;13.27;;
63555;SDS011;49700;48.072;7.800;2023-02-28T22:13:14;19.57;;;12.57;;
63555;SDS011;49700;48.072;7.800;2023-02-28T22:15:40;17.23;;;11.60;;
63555;SDS011;49700;48.072;7.800;2023-02-28T22:18:05;17.87;;;11.97;;
63555;SDS011;49700;48.072;7.800;2023-02-28T22:20:31;20.80;;;12.97;;
63555;SDS011;49700;48.072;7.800;2023-02-28T22:22:56;20.00;;;12.87;;
63555;SDS011;49700;48.072;7.800;2023-02-28T22:25:21;18.53;;;12.00;;
63555;SDS011;49700;48.072;7.800;2023-02-28T22:27:47;18.60;;;12.40;;
63555;SDS011;49700;48.072;7.800;2023-02-28T22:30:13;19.17;;;12.80;;
63555;SDS011;49700;48.072;7.800;2023-02-28T22:32:38;22.23;;;14.07;;
63555;SDS011;49700;48.072;7.800;2023-02-28T22:35:04;25.90;;;18.43;;
63555;SDS011;49700;48.072;7.800;2023-02-28T22:37:30;23.42;;;16.50;;
63555;SDS011;49700;48.072;7.800;2023-02-28T22:39:56;24.10;;;15.40;;
63555;SDS011;49700;48.072;7.800;2023-02-28T22:42:22;22.23;;;15.43;;
63555;SDS011;49700;48.072;7.800;2023-02-28T22:44:50;26.33;;;16.13;;
63555;SDS011;49700;48.072;7.800;2023-02-28T22:47:16;24.02;;;16.13;;
63555;SDS011;49700;48.072;7.800;2023-02-28T22:49:41;25.30;;;15.90;;
63555;SDS011;49700;48.072;7.800;2023-02-28T22:52:07;21.77;;;14.50;;
63555;SDS011;49700;48.072;7.800;2023-02-28T22:54:32;20.67;;;15.13;;
63555;SDS011;49700;48.072;7.800;2023-02-28T22:56:57;21.80;;;15.00;;
63555;SDS011;49700;48.072;7.800;2023-02-28T22:59:23;20.83;;;13.93;;
63555;SDS011;49700;48.072;7.800;2023-02-28T23:01:48;23.53;;;16.30;;
63555;SDS011;49700;48.072;7.800;2023-02-28T23:04:14;20.10;;;14.73;;
63555;SDS011;49700;48.072;7.800;2023-02-28T23:06:40;20.57;;;14.90;;
63555;SDS011;49700;48.072;7.800;2023-02-28T23:09:10;24.58;;;14.57;;
63555;SDS011;49700;48.072;7.800;2023-02-28T23:11:39;20.85;;;14.15;;
63555;SDS011;49700;48.072;7.800;2023-02-28T23:14:07;27.48;;;15.65;;
63555;SDS011;49700;48.072;7.800;2023-02-28T23:16:38;27.35;;;15.45;;
63555;SDS011;49700;48.072;7.800;2023-02-28T23:19:12;18.05;;;14.05;;
63555;SDS011;49700;48.072;7.800;2023-02-28T23:21:40;23.05;;;14.57;;
63555;SDS011;49700;48.072;7.800;2023-02-28T23:24:07;23.88;;;14.90;;
63555;SDS011;49700;48.072;7.800;2023-02-28T23:26:36;23.15;;;13.85;;
63555;SDS011;49700;48.072;7.800;2023-02-28T23:29:08;29.85;;;18.35;;
63555;SDS011;49700;48.072;7.800;2023-02-28T23:31:34;24.67;;;16.83;;
63555;SDS011;49700;48.072;7.800;2023-02-28T23:34:01;23.33;;;16.10;;
63555;SDS011;49700;48.072;7.800;2023-02-28T23:36:26;21.40;;;15.13;;
63555;SDS011;49700;48.072;7.800;2023-02-28T23:38:52;20.63;;;16.00;;
63555;SDS011;49700;48.072;7.800;2023-02-28T23:41:19;22.17;;;13.07;;
63555;SDS011;49700;48.072;7.800;2023-02-28T23:43:45;26.38;;;16.15;;
63555;SDS011;49700;48.072;7.800;2023-02-28T23:46:12;22.55;;;15.10;;
63555;SDS011;49700;48.072;7.800;2023-02-28T23:48:38;20.35;;;14.52;;
63555;SDS011;49700;48.072;7.800;2023-02-28T23:51:08;24.47;;;13.37;;
63555;SDS011;49700;48.072;7.800;2023-02-28T23:53:41;19.35;;;14.75;;
63555;SDS011;49700;48.072;7.800;2023-02-28T23:56:09;24.98;;;15.48;;
63555;SDS011;49700;48.072;7.800;2023-02-28T23:58:38;17.20;;;12.75;;
